sensor_id;sensor_type;location;lat;lon;timestamp;P1;durP1;ratioP1;P2;durP2;ratioP2
68940;SDS011;55982;51.476;7.552;2023-06-22T00:01:48;6.95;;;5.15;;
68940;SDS011;55982;51.476;7.552;2023-06-22T00:04:14;8.32;;;6.50;;
68940;SDS011;55982;51.476;7.552;2023-06-22T00:06:39;11.75;;;7.40;;
68940;SDS011;55982;51.476;7.552;2023-06-22T00:09:05;7.85;;;5.78;;
68940;SDS011;55982;51.476;7.552;2023-06-22T00:11:32;10.65;;;6.93;;
68940;SDS011;55982;51.476;7.552;2023-06-22T00:13:58;9.75;;;7.55;;
68940;SDS011;55982;51.476;7.552;2023-06-22T00:16:24;10.30;;;7.82;;
68940;SDS011;55982;51.476;7.552;2023-06-22T00:18:50;10.00;;;6.97;;
68940;SDS011;55982;51.476;7.552;2023-06-22T00:21:15;13.23;;;7.95;;
68940;SDS011;55982;51.476;7.552;2023-06-22T00:23:41;9.63;;;7.90;;
68940;SDS011;55982;51.476;7.552;2023-06-22T00:26:08;13.30;;;8.30;;
68940;SDS011;55982;51.476;7.552;2023-06-22T00:28:33;11.23;;;8.15;;
68940;SDS011;55982;51.476;7.552;2023-06-22T00:30:59;9.93;;;8.45;;
68940;SDS011;55982;51.476;7.552;2023-06-22T00:33:25;13.52;;;9.07;;
68940;SDS011;55982;51.476;7.552;2023-06-22T00:35:51;14.23;;;9.10;;
68940;SDS011;55982;51.476;7.552;2023-06-22T00:38:18;12.15;;;8.73;;
68940;SDS011;55982;51.476;7.552;2023-06-22T00:40:44;10.95;;;8.20;;
68940;SDS011;55982;51.476;7.552;2023-06-22T00:43:10;9.80;;;7.95;;
68940;SDS011;55982;51.476;7.552;2023-06-22T00:45:35;9.95;;;8.30;;
68940;SDS011;55982;51.476;7.552;2023-06-22T00:48:01;9.88;;;7.40;;
68940;SDS011;55982;51.476;7.552;2023-06-22T00:50:31;10.00;;;7.78;;
68940;SDS011;55982;51.476;7.552;2023-06-22T00:52:59;10.57;;;7.53;;
68940;SDS011;55982;51.476;7.552;2023-06-22T00:55:29;10.10;;;7.68;;
68940;SDS011;55982;51.476;7.552;2023-06-22T00:57:55;7.85;;;6.80;;
68940;SDS011;55982;51.476;7.552;2023-06-22T01:00:21;10.70;;;7.47;;
68940;SDS011;55982;51.476;7.552;2023-06-22T01:02:49;11.50;;;6.90;;
68940;SDS011;55982;51.476;7.552;2023-06-22T01:05:17;8.88;;;6.90;;
68940;SDS011;55982;51.476;7.552;2023-06-22T01:13:06;9.15;;;6.97;;
68940;SDS011;55982;51.476;7.552;2023-06-22T01:18:24;9.70;;;7.72;;
68940;SDS011;55982;51.476;7.552;2023-06-22T01:20:53;12.35;;;7.63;;
68940;SDS011;55982;51.476;7.552;2023-06-22T01:29:16;9.55;;;7.47;;
68940;SDS011;55982;51.476;7.552;2023-06-22T01:31:42;8.93;;;7.90;;
68940;SDS011;55982;51.476;7.552;2023-06-22T01:34:09;8.93;;;7.25;;
68940;SDS011;55982;51.476;7.552;2023-06-22T01:36:38;10.05;;;8.35;;
68940;SDS011;55982;51.476;7.552;2023-06-22T01:39:04;10.90;;;8.70;;
68940;SDS011;55982;51.476;7.552;2023-06-22T01:41:34;10.02;;;7.90;;
68940;SDS011;55982;51.476;7.552;2023-06-22T01:44:01;11.48;;;7.90;;
68940;SDS011;55982;51.476;7.552;2023-06-22T01:46:28;12.32;;;7.95;;
68940;SDS011;55982;51.476;7.552;2023-06-22T01:48:54;11.20;;;8.77;;
68940;SDS011;55982;51.476;7.552;2023-06-22T01:51:20;11.15;;;8.38;;
68940;SDS011;55982;51.476;7.552;2023-06-22T01:53:45;14.40;;;9.18;;
68940;SDS011;55982;51.476;7.552;2023-06-22T01:56:12;11.75;;;9.18;;
68940;SDS011;55982;51.476;7.552;2023-06-22T02:01:28;12.90;;;8.27;;
68940;SDS011;55982;51.476;7.552;2023-06-22T02:04:12;11.90;;;8.20;;
68940;SDS011;55982;51.476;7.552;2023-06-22T02:06:44;13.48;;;8.05;;
68940;SDS011;55982;51.476;7.552;2023-06-22T02:09:16;11.82;;;7.43;;
68940;SDS011;55982;51.476;7.552;2023-06-22T02:11:45;11.68;;;8.00;;
68940;SDS011;55982;51.476;7.552;2023-06-22T02:14:13;9.00;;;7.65;;
68940;SDS011;55982;51.476;7.552;2023-06-22T02:16:40;8.77;;;7.15;;
68940;SDS011;55982;51.476;7.552;2023-06-22T02:19:06;13.90;;;7.57;;
68940;SDS011;55982;51.476;7.552;2023-06-22T02:21:32;11.23;;;8.07;;
68940;SDS011;55982;51.476;7.552;2023-06-22T02:23:57;12.82;;;8.55;;
68940;SDS011;55982;51.476;7.552;2023-06-22T02:26:23;11.10;;;8.20;;
68940;SDS011;55982;51.476;7.552;2023-06-22T02:28:50;9.55;;;8.07;;
68940;SDS011;55982;51.476;7.552;2023-06-22T02:31:17;10.95;;;8.30;;
68940;SDS011;55982;51.476;7.552;2023-06-22T02:33:42;11.45;;;7.82;;
68940;SDS011;55982;51.476;7.552;2023-06-22T02:36:09;10.10;;;7.68;;
68940;SDS011;55982;51.476;7.552;2023-06-22T02:38:37;13.38;;;10.05;;
68940;SDS011;55982;51.476;7.552;2023-06-22T02:41:02;14.10;;;9.85;;
68940;SDS011;55982;51.476;7.552;2023-06-22T02:43:28;15.13;;;11.20;;
68940;SDS011;55982;51.476;7.552;2023-06-22T02:45:53;19.48;;;11.68;;
68940;SDS011;55982;51.476;7.552;2023-06-22T02:48:18;20.77;;;14.13;;
68940;SDS011;55982;51.476;7.552;2023-06-22T02:50:44;19.63;;;14.30;;
68940;SDS011;55982;51.476;7.552;2023-06-22T02:53:09;18.30;;;13.15;;
68940;SDS011;55982;51.476;7.552;2023-06-22T02:55:35;17.40;;;12.80;;
68940;SDS011;55982;51.476;7.552;2023-06-22T02:58:00;14.07;;;10.73;;
68940;SDS011;55982;51.476;7.552;2023-06-22T03:00:29;14.07;;;10.85;;
68940;SDS011;55982;51.476;7.552;2023-06-22T03:02:55;14.90;;;11.32;;
68940;SDS011;55982;51.476;7.552;2023-06-22T03:05:22;14.27;;;10.82;;
68940;SDS011;55982;51.476;7.552;2023-06-22T03:07:47;12.98;;;10.63;;
68940;SDS011;55982;51.476;7.552;2023-06-22T03:10:13;15.57;;;10.50;;
68940;SDS011;55982;51.476;7.552;2023-06-22T03:12:39;13.02;;;10.35;;
68940;SDS011;55982;51.476;7.552;2023-06-22T03:15:06;12.93;;;9.95;;
68940;SDS011;55982;51.476;7.552;2023-06-22T03:17:37;12.65;;;10.30;;
68940;SDS011;55982;51.476;7.552;2023-06-22T03:20:04;14.70;;;11.23;;
68940;SDS011;55982;51.476;7.552;2023-06-22T03:22:50;12.85;;;10.30;;
68940;SDS011;55982;51.476;7.552;2023-06-22T03:25:15;15.60;;;10.55;;
68940;SDS011;55982;51.476;7.552;2023-06-22T03:27:41;12.52;;;10.20;;
68940;SDS011;55982;51.476;7.552;2023-06-22T03:30:09;16.48;;;11.23;;
68940;SDS011;55982;51.476;7.552;2023-06-22T03:32:36;14.93;;;10.93;;
68940;SDS011;55982;51.476;7.552;2023-06-22T03:35:01;13.10;;;10.40;;
68940;SDS011;55982;51.476;7.552;2023-06-22T03:37:28;13.07;;;10.43;;
68940;SDS011;55982;51.476;7.552;2023-06-22T03:39:53;15.38;;;9.98;;
68940;SDS011;55982;51.476;7.552;2023-06-22T03:42:19;14.40;;;11.30;;
68940;SDS011;55982;51.476;7.552;2023-06-22T03:44:44;15.02;;;11.40;;
68940;SDS011;55982;51.476;7.552;2023-06-22T03:47:10;15.25;;;11.45;;
68940;SDS011;55982;51.476;7.552;2023-06-22T03:49:35;14.88;;;11.80;;
68940;SDS011;55982;51.476;7.552;2023-06-22T03:52:01;14.60;;;10.77;;
68940;SDS011;55982;51.476;7.552;2023-06-22T03:54:28;14.07;;;11.23;;
68940;SDS011;55982;51.476;7.552;2023-06-22T03:56:56;14.38;;;11.88;;
68940;SDS011;55982;51.476;7.552;2023-06-22T03:59:22;15.65;;;11.85;;
68940;SDS011;55982;51.476;7.552;2023-06-22T04:01:47;15.25;;;11.85;;
68940;SDS011;55982;51.476;7.552;2023-06-22T04:04:12;13.23;;;11.35;;
68940;SDS011;55982;51.476;7.552;2023-06-22T04:06:38;14.90;;;12.50;;
68940;SDS011;55982;51.476;7.552;2023-06-22T04:09:03;14.85;;;11.45;;
68940;SDS011;55982;51.476;7.552;2023-06-22T04:11:30;19.67;;;11.70;;
68940;SDS011;55982;51.476;7.552;2023-06-22T04:13:56;14.23;;;11.52;;
68940;SDS011;55982;51.476;7.552;2023-06-22T04:16:21;17.92;;;11.45;;
68940;SDS011;55982;51.476;7.552;2023-06-22T04:18:46;16.08;;;11.80;;
68940;SDS011;55982;51.476;7.552;2023-06-22T04:21:12;15.63;;;12.25;;
68940;SDS011;55982;51.476;7.552;2023-06-22T04:23:38;17.27;;;11.55;;
68940;SDS011;55982;51.476;7.552;2023-06-22T04:26:03;15.48;;;12.20;;
68940;SDS011;55982;51.476;7.552;2023-06-22T04:28:29;16.00;;;12.50;;
68940;SDS011;55982;51.476;7.552;2023-06-22T04:30:55;14.68;;;11.80;;
68940;SDS011;55982;51.476;7.552;2023-06-22T04:33:27;15.77;;;12.65;;
68940;SDS011;55982;51.476;7.552;2023-06-22T04:35:54;15.38;;;12.30;;
68940;SDS011;55982;51.476;7.552;2023-06-22T04:38:22;20.42;;;13.15;;
68940;SDS011;55982;51.476;7.552;2023-06-22T04:40:48;16.15;;;11.68;;
68940;SDS011;55982;51.476;7.552;2023-06-22T04:43:14;18.50;;;13.60;;
68940;SDS011;55982;51.476;7.552;2023-06-22T04:45:39;16.63;;;13.60;;
68940;SDS011;55982;51.476;7.552;2023-06-22T04:48:05;17.17;;;13.65;;
68940;SDS011;55982;51.476;7.552;2023-06-22T04:50:31;19.92;;;14.50;;
68940;SDS011;55982;51.476;7.552;2023-06-22T04:52:56;17.67;;;13.15;;
68940;SDS011;55982;51.476;7.552;2023-06-22T04:55:21;22.08;;;13.80;;
68940;SDS011;55982;51.476;7.552;2023-06-22T04:57:47;18.77;;;14.43;;
68940;SDS011;55982;51.476;7.552;2023-06-22T05:00:17;18.83;;;13.73;;
68940;SDS011;55982;51.476;7.552;2023-06-22T05:02:45;19.23;;;15.32;;
68940;SDS011;55982;51.476;7.552;2023-06-22T05:05:12;21.13;;;14.68;;
68940;SDS011;55982;51.476;7.552;2023-06-22T05:07:45;18.95;;;14.25;;
68940;SDS011;55982;51.476;7.552;2023-06-22T05:10:15;20.40;;;14.23;;
68940;SDS011;55982;51.476;7.552;2023-06-22T05:12:41;19.80;;;14.48;;
68940;SDS011;55982;51.476;7.552;2023-06-22T05:15:07;19.40;;;15.18;;
68940;SDS011;55982;51.476;7.552;2023-06-22T05:17:34;21.30;;;16.23;;
68940;SDS011;55982;51.476;7.552;2023-06-22T05:20:01;23.75;;;16.48;;
68940;SDS011;55982;51.476;7.552;2023-06-22T05:22:27;19.50;;;16.70;;
68940;SDS011;55982;51.476;7.552;2023-06-22T05:24:52;23.27;;;16.50;;
68940;SDS011;55982;51.476;7.552;2023-06-22T05:27:17;20.17;;;16.50;;
68940;SDS011;55982;51.476;7.552;2023-06-22T05:29:43;21.05;;;16.42;;
68940;SDS011;55982;51.476;7.552;2023-06-22T05:32:08;24.50;;;18.55;;
68940;SDS011;55982;51.476;7.552;2023-06-22T05:34:34;26.77;;;18.55;;
68940;SDS011;55982;51.476;7.552;2023-06-22T05:36:59;26.02;;;18.60;;
68940;SDS011;55982;51.476;7.552;2023-06-22T05:39:25;30.13;;;20.25;;
68940;SDS011;55982;51.476;7.552;2023-06-22T05:41:51;26.58;;;20.15;;
68940;SDS011;55982;51.476;7.552;2023-06-22T05:44:16;28.73;;;20.25;;
68940;SDS011;55982;51.476;7.552;2023-06-22T05:46:42;26.67;;;20.73;;
68940;SDS011;55982;51.476;7.552;2023-06-22T05:49:13;30.02;;;20.25;;
68940;SDS011;55982;51.476;7.552;2023-06-22T05:51:39;27.60;;;20.92;;
68940;SDS011;55982;51.476;7.552;2023-06-22T05:54:05;26.52;;;20.55;;
68940;SDS011;55982;51.476;7.552;2023-06-22T05:56:30;31.17;;;22.15;;
68940;SDS011;55982;51.476;7.552;2023-06-22T05:58:55;32.40;;;21.45;;
68940;SDS011;55982;51.476;7.552;2023-06-22T06:01:21;30.63;;;21.35;;
68940;SDS011;55982;51.476;7.552;2023-06-22T06:03:47;25.42;;;20.10;;
68940;SDS011;55982;51.476;7.552;2023-06-22T06:06:14;32.70;;;21.42;;
68940;SDS011;55982;51.476;7.552;2023-06-22T06:08:40;25.13;;;19.88;;
68940;SDS011;55982;51.476;7.552;2023-06-22T06:11:06;27.30;;;20.67;;
68940;SDS011;55982;51.476;7.552;2023-06-22T06:13:31;26.77;;;21.08;;
68940;SDS011;55982;51.476;7.552;2023-06-22T06:15:57;28.73;;;21.13;;
68940;SDS011;55982;51.476;7.552;2023-06-22T06:18:22;28.83;;;20.48;;
68940;SDS011;55982;51.476;7.552;2023-06-22T06:20:48;32.28;;;21.15;;
68940;SDS011;55982;51.476;7.552;2023-06-22T06:23:14;23.95;;;19.75;;
68940;SDS011;55982;51.476;7.552;2023-06-22T06:25:39;26.70;;;19.17;;
68940;SDS011;55982;51.476;7.552;2023-06-22T06:28:05;24.70;;;19.55;;
68940;SDS011;55982;51.476;7.552;2023-06-22T06:30:30;23.35;;;18.42;;
68940;SDS011;55982;51.476;7.552;2023-06-22T06:32:56;25.20;;;19.13;;
68940;SDS011;55982;51.476;7.552;2023-06-22T06:35:21;25.52;;;20.35;;
68940;SDS011;55982;51.476;7.552;2023-06-22T06:37:48;31.15;;;20.65;;
68940;SDS011;55982;51.476;7.552;2023-06-22T06:40:15;27.23;;;20.42;;
68940;SDS011;55982;51.476;7.552;2023-06-22T06:42:42;23.45;;;19.13;;
68940;SDS011;55982;51.476;7.552;2023-06-22T06:45:12;26.20;;;19.83;;
68940;SDS011;55982;51.476;7.552;2023-06-22T06:47:42;25.33;;;19.10;;
68940;SDS011;55982;51.476;7.552;2023-06-22T06:50:08;25.20;;;19.42;;
68940;SDS011;55982;51.476;7.552;2023-06-22T06:52:34;22.48;;;16.98;;
68940;SDS011;55982;51.476;7.552;2023-06-22T06:55:00;23.95;;;17.20;;
68940;SDS011;55982;51.476;7.552;2023-06-22T06:57:25;22.88;;;17.80;;
68940;SDS011;55982;51.476;7.552;2023-06-22T06:59:55;21.35;;;16.77;;
68940;SDS011;55982;51.476;7.552;2023-06-22T07:02:21;21.27;;;16.65;;
68940;SDS011;55982;51.476;7.552;2023-06-22T07:04:47;20.35;;;15.93;;
68940;SDS011;55982;51.476;7.552;2023-06-22T07:07:13;24.52;;;17.23;;
68940;SDS011;55982;51.476;7.552;2023-06-22T07:09:38;19.45;;;17.35;;
68940;SDS011;55982;51.476;7.552;2023-06-22T07:12:04;18.92;;;16.05;;
68940;SDS011;55982;51.476;7.552;2023-06-22T07:14:29;22.00;;;17.23;;
68940;SDS011;55982;51.476;7.552;2023-06-22T07:16:56;19.67;;;16.10;;
68940;SDS011;55982;51.476;7.552;2023-06-22T07:19:25;22.55;;;17.50;;
68940;SDS011;55982;51.476;7.552;2023-06-22T07:21:51;21.00;;;17.05;;
68940;SDS011;55982;51.476;7.552;2023-06-22T07:24:18;25.85;;;17.38;;
68940;SDS011;55982;51.476;7.552;2023-06-22T07:26:45;23.38;;;18.33;;
68940;SDS011;55982;51.476;7.552;2023-06-22T07:29:15;24.48;;;20.10;;
68940;SDS011;55982;51.476;7.552;2023-06-22T07:31:41;23.27;;;19.30;;
68940;SDS011;55982;51.476;7.552;2023-06-22T07:34:07;25.95;;;19.55;;
68940;SDS011;55982;51.476;7.552;2023-06-22T07:36:32;26.65;;;19.55;;
68940;SDS011;55982;51.476;7.552;2023-06-22T07:38:57;27.98;;;20.02;;
68940;SDS011;55982;51.476;7.552;2023-06-22T07:41:23;24.42;;;20.08;;
68940;SDS011;55982;51.476;7.552;2023-06-22T07:43:48;24.52;;;18.98;;
68940;SDS011;55982;51.476;7.552;2023-06-22T07:46:14;29.15;;;21.15;;
68940;SDS011;55982;51.476;7.552;2023-06-22T07:48:40;34.08;;;21.05;;
68940;SDS011;55982;51.476;7.552;2023-06-22T07:51:07;26.73;;;19.85;;
68940;SDS011;55982;51.476;7.552;2023-06-22T07:53:32;29.33;;;20.33;;
68940;SDS011;55982;51.476;7.552;2023-06-22T07:55:57;23.70;;;19.42;;
68940;SDS011;55982;51.476;7.552;2023-06-22T07:58:23;25.65;;;20.73;;
68940;SDS011;55982;51.476;7.552;2023-06-22T08:00:48;27.17;;;20.13;;
68940;SDS011;55982;51.476;7.552;2023-06-22T08:03:14;25.40;;;19.15;;
68940;SDS011;55982;51.476;7.552;2023-06-22T08:05:40;23.40;;;19.20;;
68940;SDS011;55982;51.476;7.552;2023-06-22T08:08:05;24.02;;;19.15;;
68940;SDS011;55982;51.476;7.552;2023-06-22T08:10:31;22.23;;;17.90;;
68940;SDS011;55982;51.476;7.552;2023-06-22T08:12:56;23.67;;;18.27;;
68940;SDS011;55982;51.476;7.552;2023-06-22T08:15:22;29.00;;;18.50;;
68940;SDS011;55982;51.476;7.552;2023-06-22T08:17:47;24.40;;;18.23;;
68940;SDS011;55982;51.476;7.552;2023-06-22T08:20:12;26.60;;;17.40;;
68940;SDS011;55982;51.476;7.552;2023-06-22T08:22:39;20.77;;;17.00;;
68940;SDS011;55982;51.476;7.552;2023-06-22T08:25:05;22.05;;;17.52;;
68940;SDS011;55982;51.476;7.552;2023-06-22T08:27:31;20.95;;;16.55;;
68940;SDS011;55982;51.476;7.552;2023-06-22T08:30:00;21.63;;;17.73;;
68940;SDS011;55982;51.476;7.552;2023-06-22T08:32:26;19.48;;;16.95;;
68940;SDS011;55982;51.476;7.552;2023-06-22T08:34:53;19.35;;;16.85;;
68940;SDS011;55982;51.476;7.552;2023-06-22T08:37:19;21.70;;;17.27;;
68940;SDS011;55982;51.476;7.552;2023-06-22T08:39:45;17.73;;;15.48;;
68940;SDS011;55982;51.476;7.552;2023-06-22T08:42:11;17.55;;;15.25;;
68940;SDS011;55982;51.476;7.552;2023-06-22T08:44:37;21.75;;;15.70;;
68940;SDS011;55982;51.476;7.552;2023-06-22T08:47:03;19.17;;;14.38;;
68940;SDS011;55982;51.476;7.552;2023-06-22T08:49:29;17.50;;;14.48;;
68940;SDS011;55982;51.476;7.552;2023-06-22T08:51:54;18.15;;;14.75;;
68940;SDS011;55982;51.476;7.552;2023-06-22T08:54:21;18.85;;;14.18;;
68940;SDS011;55982;51.476;7.552;2023-06-22T08:56:47;15.90;;;13.57;;
68940;SDS011;55982;51.476;7.552;2023-06-22T08:59:12;14.60;;;12.43;;
68940;SDS011;55982;51.476;7.552;2023-06-22T09:01:38;15.13;;;12.82;;
68940;SDS011;55982;51.476;7.552;2023-06-22T09:04:03;14.52;;;11.63;;
68940;SDS011;55982;51.476;7.552;2023-06-22T09:06:31;13.77;;;11.68;;
68940;SDS011;55982;51.476;7.552;2023-06-22T09:08:57;14.70;;;12.45;;
68940;SDS011;55982;51.476;7.552;2023-06-22T09:11:24;13.05;;;11.57;;
68940;SDS011;55982;51.476;7.552;2023-06-22T09:13:50;14.13;;;12.63;;
68940;SDS011;55982;51.476;7.552;2023-06-22T09:16:15;14.25;;;12.75;;
68940;SDS011;55982;51.476;7.552;2023-06-22T09:18:41;12.77;;;11.48;;
68940;SDS011;55982;51.476;7.552;2023-06-22T09:21:08;14.02;;;12.07;;
68940;SDS011;55982;51.476;7.552;2023-06-22T09:23:33;13.70;;;11.50;;
68940;SDS011;55982;51.476;7.552;2023-06-22T09:25:59;15.88;;;13.57;;
68940;SDS011;55982;51.476;7.552;2023-06-22T09:28:24;17.33;;;12.65;;
68940;SDS011;55982;51.476;7.552;2023-06-22T09:30:50;16.00;;;12.43;;
68940;SDS011;55982;51.476;7.552;2023-06-22T09:33:16;15.10;;;12.23;;
68940;SDS011;55982;51.476;7.552;2023-06-22T09:35:41;17.88;;;13.20;;
68940;SDS011;55982;51.476;7.552;2023-06-22T09:38:06;13.73;;;12.25;;
68940;SDS011;55982;51.476;7.552;2023-06-22T09:40:32;14.07;;;11.40;;
68940;SDS011;55982;51.476;7.552;2023-06-22T09:43:04;13.45;;;11.25;;
68940;SDS011;55982;51.476;7.552;2023-06-22T09:45:30;14.05;;;12.65;;
68940;SDS011;55982;51.476;7.552;2023-06-22T09:47:55;15.15;;;13.13;;
68940;SDS011;55982;51.476;7.552;2023-06-22T09:50:21;15.13;;;13.52;;
68940;SDS011;55982;51.476;7.552;2023-06-22T09:52:46;13.85;;;12.43;;
68940;SDS011;55982;51.476;7.552;2023-06-22T09:55:15;15.10;;;12.38;;
68940;SDS011;55982;51.476;7.552;2023-06-22T09:57:41;16.42;;;13.73;;
68940;SDS011;55982;51.476;7.552;2023-06-22T10:00:06;14.50;;;12.98;;
68940;SDS011;55982;51.476;7.552;2023-06-22T10:02:38;14.45;;;12.40;;
68940;SDS011;55982;51.476;7.552;2023-06-22T10:05:03;13.98;;;11.60;;
68940;SDS011;55982;51.476;7.552;2023-06-22T10:07:29;14.52;;;11.82;;
68940;SDS011;55982;51.476;7.552;2023-06-22T10:09:54;14.65;;;11.90;;
68940;SDS011;55982;51.476;7.552;2023-06-22T10:12:19;13.40;;;11.30;;
68940;SDS011;55982;51.476;7.552;2023-06-22T10:14:45;12.25;;;10.98;;
68940;SDS011;55982;51.476;7.552;2023-06-22T10:17:10;14.77;;;10.98;;
68940;SDS011;55982;51.476;7.552;2023-06-22T10:19:36;12.68;;;10.68;;
68940;SDS011;55982;51.476;7.552;2023-06-22T10:22:02;13.57;;;11.50;;
68940;SDS011;55982;51.476;7.552;2023-06-22T10:24:29;14.07;;;11.65;;
68940;SDS011;55982;51.476;7.552;2023-06-22T10:26:54;13.35;;;11.25;;
68940;SDS011;55982;51.476;7.552;2023-06-22T10:29:20;14.30;;;12.77;;
68940;SDS011;55982;51.476;7.552;2023-06-22T10:31:45;14.40;;;10.65;;
68940;SDS011;55982;51.476;7.552;2023-06-22T10:34:10;15.52;;;12.15;;
68940;SDS011;55982;51.476;7.552;2023-06-22T10:36:36;15.13;;;12.32;;
68940;SDS011;55982;51.476;7.552;2023-06-22T10:39:02;12.27;;;10.57;;
68940;SDS011;55982;51.476;7.552;2023-06-22T10:41:28;12.85;;;10.50;;
68940;SDS011;55982;51.476;7.552;2023-06-22T10:43:55;12.27;;;10.15;;
68940;SDS011;55982;51.476;7.552;2023-06-22T10:46:20;13.70;;;10.45;;
68940;SDS011;55982;51.476;7.552;2023-06-22T10:48:46;12.88;;;9.48;;
68940;SDS011;55982;51.476;7.552;2023-06-22T10:51:11;14.77;;;10.52;;
68940;SDS011;55982;51.476;7.552;2023-06-22T10:53:37;13.73;;;10.40;;
68940;SDS011;55982;51.476;7.552;2023-06-22T10:56:02;12.55;;;10.18;;
68940;SDS011;55982;51.476;7.552;2023-06-22T10:58:27;14.82;;;10.65;;
68940;SDS011;55982;51.476;7.552;2023-06-22T11:00:53;20.55;;;11.23;;
68940;SDS011;55982;51.476;7.552;2023-06-22T11:03:18;12.15;;;10.25;;
68940;SDS011;55982;51.476;7.552;2023-06-22T11:05:44;12.43;;;10.45;;
68940;SDS011;55982;51.476;7.552;2023-06-22T11:08:09;19.50;;;10.20;;
68940;SDS011;55982;51.476;7.552;2023-06-22T11:10:34;11.18;;;9.40;;
68940;SDS011;55982;51.476;7.552;2023-06-22T11:13:00;12.15;;;10.63;;
68940;SDS011;55982;51.476;7.552;2023-06-22T11:15:25;13.52;;;10.18;;
68940;SDS011;55982;51.476;7.552;2023-06-22T11:17:50;12.77;;;10.23;;
68940;SDS011;55982;51.476;7.552;2023-06-22T11:20:16;13.35;;;10.27;;
68940;SDS011;55982;51.476;7.552;2023-06-22T11:22:41;15.88;;;11.35;;
68940;SDS011;55982;51.476;7.552;2023-06-22T11:25:07;21.42;;;12.18;;
68940;SDS011;55982;51.476;7.552;2023-06-22T11:27:33;18.50;;;13.23;;
68940;SDS011;55982;51.476;7.552;2023-06-22T11:29:59;19.23;;;14.98;;
68940;SDS011;55982;51.476;7.552;2023-06-22T11:32:24;21.48;;;15.10;;
68940;SDS011;55982;51.476;7.552;2023-06-22T11:34:50;23.20;;;16.65;;
68940;SDS011;55982;51.476;7.552;2023-06-22T11:37:16;23.48;;;16.42;;
68940;SDS011;55982;51.476;7.552;2023-06-22T11:39:41;23.13;;;17.77;;
68940;SDS011;55982;51.476;7.552;2023-06-22T11:42:07;23.02;;;18.92;;
68940;SDS011;55982;51.476;7.552;2023-06-22T11:44:34;27.02;;;18.55;;
68940;SDS011;55982;51.476;7.552;2023-06-22T11:46:59;26.05;;;20.85;;
68940;SDS011;55982;51.476;7.552;2023-06-22T11:49:26;28.67;;;21.55;;
68940;SDS011;55982;51.476;7.552;2023-06-22T11:51:57;28.55;;;22.00;;
68940;SDS011;55982;51.476;7.552;2023-06-22T11:54:23;32.17;;;22.65;;
68940;SDS011;55982;51.476;7.552;2023-06-22T11:56:48;29.52;;;22.60;;
68940;SDS011;55982;51.476;7.552;2023-06-22T11:59:14;32.42;;;23.38;;
68940;SDS011;55982;51.476;7.552;2023-06-22T12:01:39;30.95;;;23.35;;
68940;SDS011;55982;51.476;7.552;2023-06-22T12:04:04;32.45;;;24.33;;
68940;SDS011;55982;51.476;7.552;2023-06-22T12:06:33;36.67;;;24.80;;
68940;SDS011;55982;51.476;7.552;2023-06-22T12:09:06;33.22;;;24.83;;
68940;SDS011;55982;51.476;7.552;2023-06-22T12:11:31;34.17;;;25.27;;
68940;SDS011;55982;51.476;7.552;2023-06-22T12:13:57;35.65;;;24.63;;
68940;SDS011;55982;51.476;7.552;2023-06-22T12:16:26;41.45;;;26.35;;
68940;SDS011;55982;51.476;7.552;2023-06-22T12:18:52;37.55;;;25.92;;
68940;SDS011;55982;51.476;7.552;2023-06-22T12:21:21;37.50;;;25.33;;
68940;SDS011;55982;51.476;7.552;2023-06-22T12:23:46;33.53;;;24.73;;
68940;SDS011;55982;51.476;7.552;2023-06-22T12:26:12;39.85;;;25.80;;
68940;SDS011;55982;51.476;7.552;2023-06-22T12:28:38;41.47;;;27.85;;
68940;SDS011;55982;51.476;7.552;2023-06-22T12:31:04;36.55;;;26.52;;
68940;SDS011;55982;51.476;7.552;2023-06-22T12:33:29;38.67;;;26.08;;
68940;SDS011;55982;51.476;7.552;2023-06-22T12:35:55;37.20;;;26.38;;
68940;SDS011;55982;51.476;7.552;2023-06-22T12:38:21;36.70;;;26.33;;
68940;SDS011;55982;51.476;7.552;2023-06-22T12:40:47;39.55;;;26.33;;
68940;SDS011;55982;51.476;7.552;2023-06-22T12:43:14;40.63;;;27.33;;
68940;SDS011;55982;51.476;7.552;2023-06-22T12:45:40;46.58;;;29.20;;
68940;SDS011;55982;51.476;7.552;2023-06-22T12:48:05;42.10;;;27.63;;
68940;SDS011;55982;51.476;7.552;2023-06-22T12:50:31;40.33;;;28.95;;
68940;SDS011;55982;51.476;7.552;2023-06-22T12:53:00;43.60;;;30.05;;
68940;SDS011;55982;51.476;7.552;2023-06-22T12:55:28;45.90;;;30.70;;
68940;SDS011;55982;51.476;7.552;2023-06-22T12:57:53;44.47;;;29.55;;
68940;SDS011;55982;51.476;7.552;2023-06-22T13:00:19;40.28;;;29.75;;
68940;SDS011;55982;51.476;7.552;2023-06-22T13:02:45;37.42;;;27.98;;
68940;SDS011;55982;51.476;7.552;2023-06-22T13:05:10;29.35;;;22.70;;
68940;SDS011;55982;51.476;7.552;2023-06-22T13:07:36;26.80;;;20.77;;
68940;SDS011;55982;51.476;7.552;2023-06-22T13:10:01;20.30;;;16.70;;
68940;SDS011;55982;51.476;7.552;2023-06-22T13:12:27;21.48;;;17.13;;
68940;SDS011;55982;51.476;7.552;2023-06-22T13:14:52;20.92;;;17.23;;
68940;SDS011;55982;51.476;7.552;2023-06-22T13:17:18;25.60;;;17.83;;
68940;SDS011;55982;51.476;7.552;2023-06-22T13:19:43;24.00;;;17.63;;
68940;SDS011;55982;51.476;7.552;2023-06-22T13:22:31;22.45;;;16.95;;
68940;SDS011;55982;51.476;7.552;2023-06-22T13:24:56;20.08;;;16.05;;
68940;SDS011;55982;51.476;7.552;2023-06-22T13:27:22;20.23;;;15.27;;
68940;SDS011;55982;51.476;7.552;2023-06-22T13:29:48;16.58;;;14.18;;
68940;SDS011;55982;51.476;7.552;2023-06-22T13:32:13;20.42;;;15.98;;
68940;SDS011;55982;51.476;7.552;2023-06-22T13:34:39;22.58;;;17.80;;
68940;SDS011;55982;51.476;7.552;2023-06-22T13:37:04;23.98;;;18.65;;
68940;SDS011;55982;51.476;7.552;2023-06-22T13:39:30;23.15;;;18.95;;
68940;SDS011;55982;51.476;7.552;2023-06-22T13:41:56;24.42;;;19.38;;
68940;SDS011;55982;51.476;7.552;2023-06-22T13:44:21;22.50;;;16.73;;
68940;SDS011;55982;51.476;7.552;2023-06-22T13:46:47;15.63;;;13.32;;
68940;SDS011;55982;51.476;7.552;2023-06-22T13:49:12;17.08;;;14.45;;
68940;SDS011;55982;51.476;7.552;2023-06-22T13:51:38;19.05;;;15.60;;
68940;SDS011;55982;51.476;7.552;2023-06-22T13:54:03;20.92;;;15.68;;
68940;SDS011;55982;51.476;7.552;2023-06-22T13:56:29;18.58;;;15.35;;
68940;SDS011;55982;51.476;7.552;2023-06-22T13:58:54;18.80;;;15.52;;
68940;SDS011;55982;51.476;7.552;2023-06-22T14:01:19;17.27;;;15.25;;
68940;SDS011;55982;51.476;7.552;2023-06-22T14:03:45;19.27;;;16.40;;
68940;SDS011;55982;51.476;7.552;2023-06-22T14:06:13;21.75;;;15.93;;
68940;SDS011;55982;51.476;7.552;2023-06-22T14:08:38;19.60;;;15.80;;
68940;SDS011;55982;51.476;7.552;2023-06-22T14:11:03;19.17;;;15.52;;
68940;SDS011;55982;51.476;7.552;2023-06-22T14:13:29;23.90;;;16.70;;
68940;SDS011;55982;51.476;7.552;2023-06-22T14:15:54;21.40;;;17.38;;
68940;SDS011;55982;51.476;7.552;2023-06-22T14:18:20;20.70;;;17.10;;
68940;SDS011;55982;51.476;7.552;2023-06-22T14:20:47;22.02;;;16.77;;
68940;SDS011;55982;51.476;7.552;2023-06-22T14:23:13;21.15;;;16.58;;
68940;SDS011;55982;51.476;7.552;2023-06-22T14:25:39;20.42;;;16.70;;
68940;SDS011;55982;51.476;7.552;2023-06-22T14:28:05;19.13;;;16.02;;
68940;SDS011;55982;51.476;7.552;2023-06-22T14:30:30;18.42;;;14.88;;
68940;SDS011;55982;51.476;7.552;2023-06-22T14:32:55;19.58;;;14.75;;
68940;SDS011;55982;51.476;7.552;2023-06-22T14:35:21;19.42;;;15.25;;